createdAt,value
2023-04-19T00:00:40.184Z,8.43
2023-04-19T00:01:44.317Z,13.75
2023-04-19T00:02:50.040Z,15.32
2023-04-19T00:03:54.170Z,15.45
2023-04-19T00:04:58.082Z,12.82
2023-04-19T00:06:01.760Z,14.15
2023-04-19T00:07:05.625Z,17.50
2023-04-19T00:08:09.562Z,30.40
2023-04-19T00:09:13.442Z,19.88
2023-04-19T00:10:17.172Z,21.40
2023-04-19T00:11:21.024Z,17.65
2023-04-19T00:12:24.607Z,16.27
2023-04-19T00:13:27.798Z,17.08
2023-04-19T00:14:31.646Z,20.85
2023-04-19T00:15:36.153Z,17.52
2023-04-19T00:16:39.670Z,16.65
2023-04-19T00:17:43.721Z,16.73
2023-04-19T00:18:47.718Z,15.57
2023-04-19T00:19:51.579Z,18.38
2023-04-19T00:20:54.715Z,15.75
2023-04-19T00:21:58.532Z,21.73
2023-04-19T00:23:02.186Z,16.48
2023-04-19T00:24:06.631Z,13.20
2023-04-19T00:25:09.871Z,16.13
2023-04-19T00:26:16.307Z,20.67
2023-04-19T00:27:25.801Z,17.67
2023-04-19T00:28:29.641Z,15.95
2023-04-19T00:29:33.844Z,11.95
2023-04-19T00:30:37.494Z,15.43
2023-04-19T00:31:41.557Z,16.02
2023-04-19T00:32:45.037Z,20.00
2023-04-19T00:33:48.172Z,19.70
2023-04-19T00:34:51.552Z,18.73
2023-04-19T00:35:54.967Z,17.52
2023-04-19T00:36:58.716Z,13.23
2023-04-19T00:38:02.456Z,16.35
2023-04-19T00:39:05.890Z,15.20
2023-04-19T00:40:09.866Z,14.20
2023-04-19T00:41:14.127Z,12.13
2023-04-19T00:42:18.224Z,18.27
2023-04-19T00:43:23.763Z,19.25
2023-04-19T00:44:27.225Z,18.42
2023-04-19T00:45:31.005Z,15.88
2023-04-19T00:46:34.748Z,19.13
2023-04-19T00:47:38.038Z,13.15
2023-04-19T00:48:42.008Z,14.82
2023-04-19T00:49:46.942Z,17.85
2023-04-19T00:50:50.730Z,17.98
2023-04-19T00:51:54.793Z,20.80
2023-04-19T00:53:01.175Z,14.98
2023-04-19T00:54:05.221Z,17.98
2023-04-19T00:55:08.957Z,21.33
2023-04-19T00:56:12.166Z,17.70
2023-04-19T00:57:17.694Z,13.07
2023-04-19T00:58:21.439Z,27.58
2023-04-19T00:59:24.736Z,10.18
2023-04-19T01:00:28.388Z,17.45
2023-04-19T01:01:32.329Z,19.60
2023-04-19T01:02:36.914Z,32.28
2023-04-19T01:03:40.796Z,20.52
2023-04-19T01:04:45.370Z,23.08
2023-04-19T01:05:50.562Z,20.77
2023-04-19T01:06:54.105Z,18.00
2023-04-19T01:07:58.296Z,16.50
2023-04-19T01:09:02.717Z,12.90
2023-04-19T01:10:06.722Z,15.98
2023-04-19T01:11:10.012Z,24.98
2023-04-19T01:12:13.717Z,23.35
2023-04-19T01:13:19.282Z,21.70
2023-04-19T01:14:23.210Z,16.75
2023-04-19T01:15:27.195Z,25.40
2023-04-19T01:16:31.104Z,17.92
2023-04-19T01:17:35.188Z,24.35
2023-04-19T01:18:41.810Z,19.02
2023-04-19T01:19:45.290Z,23.98
2023-04-19T01:20:48.656Z,25.25
2023-04-19T01:21:53.618Z,24.67
2023-04-19T01:22:57.041Z,24.17
2023-04-19T01:24:00.592Z,17.80
2023-04-19T01:25:05.145Z,16.10
2023-04-19T01:26:08.366Z,22.25
2023-04-19T01:27:12.197Z,15.70
2023-04-19T01:28:15.496Z,17.92
2023-04-19T01:29:19.852Z,21.98
2023-04-19T01:30:23.875Z,19.60
2023-04-19T01:31:27.937Z,18.85
2023-04-19T01:32:31.845Z,22.55
2023-04-19T01:33:35.505Z,18.98
2023-04-19T01:34:39.006Z,28.50
2023-04-19T01:35:42.570Z,18.88
2023-04-19T01:36:46.805Z,24.90
2023-04-19T01:37:51.732Z,20.85
2023-04-19T01:38:55.343Z,24.85
2023-04-19T01:39:58.662Z,29.10
2023-04-19T01:41:04.099Z,24.38
2023-04-19T01:42:07.959Z,20.55
2023-04-19T01:43:17.729Z,15.23
2023-04-19T01:44:20.895Z,17.33
2023-04-19T01:45:24.113Z,20.05
2023-04-19T01:46:27.861Z,19.50
2023-04-19T01:47:31.615Z,10.38
2023-04-19T01:48:35.335Z,15.38
2023-04-19T01:49:39.300Z,20.50
2023-04-19T01:50:42.593Z,21.65
2023-04-19T01:51:47.865Z,24.70
2023-04-19T01:52:51.463Z,13.57
2023-04-19T01:53:55.578Z,16.17
2023-04-19T01:54:59.856Z,16.55
2023-04-19T01:56:03.304Z,22.13
2023-04-19T01:57:07.072Z,12.68
2023-04-19T01:58:11.058Z,13.63
2023-04-19T01:59:15.367Z,24.60
2023-04-19T02:00:18.824Z,14.85
2023-04-19T02:01:24.299Z,14.98
2023-04-19T02:02:28.215Z,17.63
2023-04-19T02:03:32.435Z,16.50
2023-04-19T02:04:36.478Z,16.67
2023-04-19T02:05:42.608Z,23.17
2023-04-19T02:06:45.993Z,18.52
2023-04-19T02:07:49.784Z,14.30
2023-04-19T02:08:53.600Z,14.95
2023-04-19T02:09:56.901Z,14.85
2023-04-19T02:11:00.653Z,17.77
2023-04-19T02:12:05.929Z,17.92
2023-04-19T02:13:09.748Z,11.73
2023-04-19T02:14:13.378Z,11.65
2023-04-19T02:15:17.202Z,12.93
2023-04-19T02:16:21.028Z,11.90
2023-04-19T02:17:26.984Z,9.25
2023-04-19T02:18:31.513Z,12.27
2023-04-19T02:19:35.161Z,17.10
2023-04-19T02:20:38.773Z,18.00
2023-04-19T02:21:42.340Z,19.83
2023-04-19T02:22:46.030Z,21.80
2023-04-19T02:23:49.568Z,17.27
2023-04-19T02:24:53.674Z,15.60
2023-04-19T02:26:04.262Z,21.05
2023-04-19T02:27:08.005Z,21.20
2023-04-19T02:28:11.924Z,18.90
2023-04-19T02:29:17.542Z,20.52
2023-04-19T02:30:21.354Z,16.23
2023-04-19T02:31:24.750Z,16.98
2023-04-19T02:32:28.814Z,12.98
2023-04-19T02:33:32.415Z,22.73
2023-04-19T02:34:36.975Z,9.82
2023-04-19T02:35:40.273Z,21.05
2023-04-19T02:36:43.674Z,15.05
2023-04-19T02:37:47.806Z,20.30
2023-04-19T02:38:51.464Z,23.70
2023-04-19T02:39:56.972Z,13.63
2023-04-19T02:41:02.253Z,15.63
2023-04-19T02:42:06.518Z,8.40
2023-04-19T02:43:10.171Z,17.70
2023-04-19T02:44:13.674Z,9.30
2023-04-19T02:45:19.332Z,9.85
2023-04-19T02:46:22.879Z,10.13
2023-04-19T02:47:26.459Z,21.70
2023-04-19T02:48:29.654Z,30.33
2023-04-19T02:49:36.630Z,15.82
2023-04-19T02:50:41.364Z,20.20
2023-04-19T02:51:45.254Z,21.73
2023-04-19T02:52:49.808Z,15.60
2023-04-19T02:53:54.543Z,19.30
2023-04-19T02:54:58.383Z,28.98
2023-04-19T02:56:02.676Z,19.00
2023-04-19T02:57:05.882Z,27.10
2023-04-19T02:58:09.826Z,33.97
2023-04-19T02:59:23.652Z,36.35
2023-04-19T03:00:27.489Z,30.33
2023-04-19T03:01:40.523Z,31.83
2023-04-19T03:02:45.596Z,59.50
2023-04-19T03:03:49.759Z,42.38
2023-04-19T03:04:56.028Z,34.75
2023-04-19T03:05:59.553Z,46.22
2023-04-19T03:07:04.783Z,47.53
2023-04-19T03:08:07.991Z,46.60
2023-04-19T03:09:12.391Z,51.60
2023-04-19T03:10:16.719Z,40.70
2023-04-19T03:11:20.717Z,32.83
2023-04-19T03:12:24.796Z,32.65
2023-04-19T03:13:28.955Z,28.75
2023-04-19T03:14:34.796Z,18.83
2023-04-19T03:15:38.426Z,21.73
2023-04-19T03:16:42.537Z,9.98
2023-04-19T03:17:46.857Z,29.15
2023-04-19T03:18:51.228Z,22.95
2023-04-19T03:19:59.606Z,45.85
2023-04-19T03:21:04.382Z,25.88
2023-04-19T03:22:16.272Z,23.02
2023-04-19T03:23:19.916Z,20.63
2023-04-19T03:24:31.093Z,12.23
2023-04-19T03:25:38.764Z,9.82
2023-04-19T03:27:15.715Z,23.25
2023-04-19T03:28:22.800Z,32.58
2023-04-19T03:29:48.789Z,34.20
2023-04-19T03:30:52.542Z,11.18
2023-04-19T03:31:55.854Z,6.18
2023-04-19T03:33:01.141Z,7.40
2023-04-19T03:34:04.993Z,8.88
2023-04-19T03:35:15.135Z,6.97
2023-04-19T03:36:18.694Z,6.80
2023-04-19T03:37:23.755Z,5.22
2023-04-19T03:38:27.460Z,20.55
2023-04-19T03:39:31.938Z,11.48
2023-04-19T03:40:39.332Z,6.70
2023-04-19T03:41:45.013Z,15.48
2023-04-19T03:43:06.367Z,14.82
2023-04-19T03:44:11.431Z,19.73
2023-04-19T03:45:18.320Z,14.20
2023-04-19T03:46:24.631Z,5.15
2023-04-19T03:47:28.566Z,11.65
2023-04-19T03:48:36.568Z,8.85
2023-04-19T03:49:40.210Z,13.02
2023-04-19T03:50:43.751Z,4.60
2023-04-19T03:51:50.679Z,9.18
2023-04-19T03:52:55.214Z,4.03
2023-04-19T03:53:58.912Z,11.57
2023-04-19T03:55:04.175Z,8.30
2023-04-19T03:56:12.644Z,4.82
2023-04-19T03:57:18.627Z,4.10
2023-04-19T03:58:23.193Z,3.47
2023-04-19T03:59:34.491Z,14.85
2023-04-19T04:00:38.988Z,9.88
2023-04-19T04:01:42.942Z,20.80
2023-04-19T04:02:46.676Z,16.00
2023-04-19T04:03:50.403Z,15.73
2023-04-19T04:04:55.996Z,18.33
2023-04-19T04:06:00.336Z,32.75
2023-04-19T04:07:04.287Z,45.58
2023-04-19T04:08:08.613Z,29.80
2023-04-19T04:09:12.468Z,37.22
2023-04-19T04:10:16.004Z,28.58
2023-04-19T04:11:20.491Z,21.67
2023-04-19T04:12:25.559Z,16.98
2023-04-19T04:13:31.349Z,17.58
2023-04-19T04:14:42.934Z,15.98
2023-04-19T04:15:47.890Z,24.45
2023-04-19T04:16:52.661Z,22.15
2023-04-19T04:17:57.762Z,34.70
2023-04-19T04:19:02.878Z,54.03
2023-04-19T04:20:10.783Z,18.50
2023-04-19T04:21:14.640Z,20.48
2023-04-19T04:22:22.267Z,35.50
2023-04-19T04:23:26.470Z,18.10
2023-04-19T04:24:31.202Z,17.67
2023-04-19T04:26:05.544Z,13.90
2023-04-19T04:27:28.948Z,13.75
2023-04-19T04:28:32.954Z,24.88
2023-04-19T04:29:40.690Z,14.40
2023-04-19T04:30:45.534Z,45.58
2023-04-19T04:31:50.167Z,13.13
2023-04-19T04:32:59.062Z,10.65
2023-04-19T04:34:04.440Z,8.43
2023-04-19T04:35:12.028Z,8.25
2023-04-19T04:36:21.637Z,8.35
2023-04-19T04:37:27.091Z,10.30
2023-04-19T04:38:30.947Z,10.88
2023-04-19T04:39:40.167Z,15.00
2023-04-19T04:40:50.283Z,12.85
2023-04-19T04:41:54.151Z,23.08
2023-04-19T04:42:58.493Z,10.40
2023-04-19T04:44:12.482Z,11.73
2023-04-19T04:45:27.283Z,11.45
2023-04-19T04:46:31.368Z,23.17
2023-04-19T04:47:35.556Z,10.23
2023-04-19T04:48:42.091Z,12.77
2023-04-19T04:49:46.165Z,9.63
2023-04-19T04:50:50.087Z,11.75
2023-04-19T04:51:54.598Z,11.98
2023-04-19T04:52:58.578Z,14.77
2023-04-19T04:54:06.373Z,14.20
2023-04-19T04:55:12.056Z,11.57
2023-04-19T04:56:20.447Z,22.00
2023-04-19T04:57:23.790Z,8.90
2023-04-19T04:58:27.456Z,12.52
2023-04-19T04:59:36.491Z,42.67
2023-04-19T05:00:40.506Z,10.95
2023-04-19T05:01:46.764Z,4.47
2023-04-19T05:02:51.093Z,12.38
2023-04-19T05:03:54.582Z,8.82
2023-04-19T05:04:58.421Z,21.02
2023-04-19T05:06:03.303Z,9.30
2023-04-19T05:07:07.755Z,11.48
2023-04-19T05:08:11.408Z,7.97
2023-04-19T05:09:15.522Z,6.03
2023-04-19T05:10:19.450Z,11.70
2023-04-19T05:11:24.041Z,9.50
2023-04-19T05:12:28.571Z,7.40
2023-04-19T05:13:32.838Z,7.35
2023-04-19T05:14:36.616Z,4.72
2023-04-19T05:15:41.041Z,8.30
2023-04-19T05:16:45.546Z,11.85
2023-04-19T05:17:50.460Z,38.42
2023-04-19T05:18:57.218Z,14.15
2023-04-19T05:20:02.318Z,20.40
2023-04-19T05:21:07.454Z,21.83
2023-04-19T05:22:11.175Z,16.52
2023-04-19T05:23:15.806Z,40.65
2023-04-19T05:24:19.882Z,17.00
2023-04-19T05:25:23.492Z,29.85
2023-04-19T05:26:27.047Z,12.68
2023-04-19T05:27:31.658Z,15.50
2023-04-19T05:28:35.321Z,20.08
2023-04-19T05:29:44.340Z,19.90
2023-04-19T05:30:48.148Z,15.77
2023-04-19T05:31:52.443Z,33.85
2023-04-19T05:33:03.209Z,19.85
2023-04-19T05:34:08.026Z,22.27
2023-04-19T05:35:12.484Z,20.50
2023-04-19T05:36:16.077Z,21.27
2023-04-19T05:37:20.200Z,29.65
2023-04-19T05:38:23.306Z,24.23
2023-04-19T05:39:27.454Z,21.15
2023-04-19T05:40:31.613Z,30.77
2023-04-19T05:41:35.175Z,27.05
2023-04-19T05:42:39.653Z,32.55
2023-04-19T05:43:43.328Z,26.70
2023-04-19T05:44:47.142Z,41.63
2023-04-19T05:45:50.591Z,39.67
2023-04-19T05:46:54.305Z,32.80
2023-04-19T05:48:18.065Z,33.90
2023-04-19T05:50:00.119Z,34.30
2023-04-19T05:51:18.028Z,38.38
2023-04-19T05:52:39.883Z,33.30
2023-04-19T05:53:44.696Z,37.40
2023-04-19T05:54:48.347Z,45.33
2023-04-19T05:55:53.136Z,40.40
2023-04-19T05:56:56.794Z,44.15
2023-04-19T05:58:00.006Z,38.95
2023-04-19T05:59:04.810Z,49.33
2023-04-19T06:00:10.368Z,39.30
2023-04-19T06:01:32.638Z,37.63
2023-04-19T06:02:37.249Z,44.47
2023-04-19T06:03:40.711Z,33.22
2023-04-19T06:04:44.534Z,35.63
2023-04-19T06:05:48.824Z,43.67
2023-04-19T06:06:52.933Z,27.20
2023-04-19T06:08:02.808Z,31.58
2023-04-19T06:09:08.145Z,28.23
2023-04-19T06:10:11.719Z,28.13
2023-04-19T06:11:23.330Z,31.33
2023-04-19T06:12:33.404Z,18.92
2023-04-19T06:13:37.128Z,37.72
2023-04-19T06:14:40.466Z,23.63
2023-04-19T06:15:44.534Z,29.63
2023-04-19T06:16:48.715Z,30.70
2023-04-19T06:17:52.576Z,31.52
2023-04-19T06:18:56.567Z,26.95
2023-04-19T06:20:00.435Z,27.33
2023-04-19T06:21:03.914Z,27.65
2023-04-19T06:22:07.740Z,17.75
2023-04-19T06:23:14.070Z,28.73
2023-04-19T06:24:17.821Z,16.08
2023-04-19T06:25:21.708Z,22.63
2023-04-19T06:26:25.618Z,18.98
2023-04-19T06:27:29.435Z,18.20
2023-04-19T06:28:33.369Z,19.23
2023-04-19T06:29:37.369Z,23.23
2023-04-19T06:30:40.763Z,32.35
2023-04-19T06:31:44.151Z,19.42
2023-04-19T06:32:47.655Z,26.05
2023-04-19T06:33:51.416Z,19.70
2023-04-19T06:34:54.923Z,18.98
2023-04-19T06:35:58.072Z,26.95
2023-04-19T06:37:01.210Z,20.23
2023-04-19T06:38:04.894Z,21.75
2023-04-19T06:39:08.666Z,14.23
2023-04-19T06:40:12.308Z,26.98
2023-04-19T06:41:15.575Z,23.20
2023-04-19T06:42:20.753Z,17.98
2023-04-19T06:43:24.988Z,20.40
2023-04-19T06:44:28.553Z,24.35
2023-04-19T06:45:32.558Z,18.38
2023-04-19T06:46:36.265Z,29.27
2023-04-19T06:47:40.217Z,14.57
2023-04-19T06:48:43.927Z,17.00
2023-04-19T06:49:47.124Z,21.00
2023-04-19T06:50:50.789Z,14.80
2023-04-19T06:51:55.030Z,16.40
2023-04-19T06:52:58.637Z,21.58
2023-04-19T06:54:02.040Z,21.25
2023-04-19T06:55:07.309Z,21.75
2023-04-19T06:56:12.143Z,18.33
2023-04-19T06:57:16.594Z,24.67
2023-04-19T06:58:20.214Z,13.77
2023-04-19T06:59:23.706Z,21.05
2023-04-19T07:00:27.513Z,16.90
2023-04-19T07:01:31.266Z,13.50
2023-04-19T07:02:35.332Z,10.80
2023-04-19T07:03:39.504Z,14.80
2023-04-19T07:04:43.408Z,9.25
2023-04-19T07:05:48.155Z,18.55
2023-04-19T07:06:51.586Z,19.08
2023-04-19T07:07:55.458Z,18.05
2023-04-19T07:08:59.028Z,19.55
2023-04-19T07:10:02.614Z,12.68
2023-04-19T07:11:07.077Z,14.63
2023-04-19T07:12:11.113Z,13.95
2023-04-19T07:13:14.921Z,13.02
2023-04-19T07:14:21.694Z,24.88
2023-04-19T07:15:24.981Z,19.05
2023-04-19T07:16:29.187Z,13.52
2023-04-19T07:17:33.092Z,13.95
2023-04-19T07:18:36.761Z,16.48
2023-04-19T07:19:40.249Z,7.25
2023-04-19T07:20:45.716Z,11.60
2023-04-19T07:21:49.861Z,12.75
2023-04-19T07:22:53.792Z,20.27
2023-04-19T07:23:57.749Z,21.52
2023-04-19T07:25:01.661Z,20.63
2023-04-19T07:26:05.861Z,25.10
2023-04-19T07:27:09.991Z,28.80
2023-04-19T07:28:14.013Z,24.60
2023-04-19T07:29:17.576Z,24.98
2023-04-19T07:30:21.183Z,21.33
2023-04-19T07:31:25.523Z,18.42
2023-04-19T07:32:29.426Z,23.55
2023-04-19T07:33:33.314Z,17.75
2023-04-19T07:34:38.900Z,17.00
2023-04-19T07:35:42.410Z,26.33
2023-04-19T07:36:46.412Z,15.85
2023-04-19T07:37:49.766Z,23.05
2023-04-19T07:38:53.620Z,15.65
2023-04-19T07:39:57.481Z,17.05
2023-04-19T07:41:01.636Z,20.25
2023-04-19T07:42:05.094Z,19.45
2023-04-19T07:43:09.270Z,19.85
2023-04-19T07:44:13.905Z,15.20
2023-04-19T07:45:17.472Z,21.23
2023-04-19T07:46:21.018Z,19.92
2023-04-19T07:47:24.617Z,20.80
2023-04-19T07:48:28.203Z,20.73
2023-04-19T07:49:34.690Z,19.10
2023-04-19T07:50:38.938Z,17.48
2023-04-19T07:51:42.868Z,13.65
2023-04-19T07:52:46.530Z,18.80
2023-04-19T07:53:50.887Z,17.02
2023-04-19T07:54:54.282Z,13.82
2023-04-19T07:55:58.203Z,16.95
2023-04-19T07:57:03.164Z,13.25
2023-04-19T07:58:07.336Z,18.02
2023-04-19T07:59:11.216Z,15.88
2023-04-19T08:00:15.957Z,17.20
2023-04-19T08:01:19.738Z,14.30
2023-04-19T08:02:23.118Z,14.32
2023-04-19T08:03:26.959Z,16.30
2023-04-19T08:04:31.174Z,15.57
2023-04-19T08:05:35.483Z,18.80
2023-04-19T08:06:40.092Z,15.75
2023-04-19T08:07:44.099Z,14.68
2023-04-19T08:08:48.625Z,19.33
2023-04-19T08:09:53.824Z,16.23
2023-04-19T08:10:57.328Z,21.77
2023-04-19T08:12:04.341Z,10.93
2023-04-19T08:13:08.309Z,12.25
2023-04-19T08:14:28.485Z,13.60
2023-04-19T08:17:19.139Z,13.60
2023-04-19T08:18:06.340Z,11.32
2023-04-19T08:19:10.080Z,10.10
2023-04-19T08:20:14.012Z,8.90
2023-04-19T08:21:17.677Z,11.93
2023-04-19T08:22:22.146Z,8.95
2023-04-19T08:23:29.724Z,7.95
2023-04-19T08:24:41.628Z,8.20
2023-04-19T08:25:45.633Z,8.25
2023-04-19T08:26:54.762Z,11.20
2023-04-19T08:27:58.929Z,14.03
2023-04-19T08:29:02.847Z,14.00
2023-04-19T08:30:08.537Z,10.40
2023-04-19T08:31:12.312Z,10.38
2023-04-19T08:32:16.623Z,13.68
2023-04-19T08:33:19.994Z,12.77
2023-04-19T08:34:23.755Z,13.57
2023-04-19T08:35:28.174Z,11.27
2023-04-19T08:36:41.065Z,12.32
2023-04-19T08:37:49.374Z,12.00
2023-04-19T08:39:04.190Z,13.15
2023-04-19T08:40:12.438Z,10.65
2023-04-19T08:41:16.692Z,10.65
2023-04-19T08:42:33.198Z,12.75
2023-04-19T08:43:40.557Z,11.40
2023-04-19T08:45:05.605Z,12.82
2023-04-19T08:46:09.552Z,10.40
2023-04-19T08:47:20.220Z,17.27
2023-04-19T08:48:31.667Z,9.00
2023-04-19T08:49:40.749Z,5.78
2023-04-19T08:51:03.993Z,9.50
2023-04-19T08:52:09.665Z,9.30
2023-04-19T08:53:23.982Z,10.75
2023-04-19T08:54:33.190Z,9.98
2023-04-19T08:55:38.259Z,14.05
2023-04-19T08:56:43.723Z,6.32
2023-04-19T08:57:47.463Z,7.85
2023-04-19T08:59:01.043Z,14.88
2023-04-19T09:00:15.549Z,13.20
2023-04-19T09:01:31.152Z,10.30
2023-04-19T09:02:48.550Z,16.17
2023-04-19T09:04:01.323Z,9.60
2023-04-19T09:05:10.977Z,9.60
2023-04-19T09:06:14.688Z,11.57
2023-04-19T09:07:27.884Z,8.07
2023-04-19T09:08:31.904Z,8.90
2023-04-19T09:09:45.721Z,8.45
2023-04-19T09:11:02.722Z,10.02
2023-04-19T09:12:21.248Z,12.77
2023-04-19T09:13:25.478Z,9.95
2023-04-19T09:14:29.869Z,8.70
2023-04-19T09:15:40.822Z,8.70
2023-04-19T09:16:45.007Z,11.68
2023-04-19T09:17:48.906Z,11.13
2023-04-19T09:19:15.339Z,9.65
2023-04-19T09:20:26.728Z,8.65
2023-04-19T09:21:31.743Z,8.07
2023-04-19T09:22:40.297Z,12.18
2023-04-19T09:23:48.918Z,8.55
2023-04-19T09:26:22.770Z,12.63
2023-04-19T09:27:35.261Z,8.55
2023-04-19T09:28:38.921Z,9.85
2023-04-19T09:29:43.285Z,10.95
2023-04-19T09:31:00.658Z,17.15
2023-04-19T09:32:14.988Z,10.23
2023-04-19T09:33:35.260Z,11.65
2023-04-19T09:34:39.174Z,11.30
2023-04-19T09:35:50.545Z,18.02
2023-04-19T09:37:01.052Z,14.57
2023-04-19T09:38:16.898Z,15.20
2023-04-19T09:39:32.994Z,10.23
2023-04-19T09:40:36.726Z,12.18
2023-04-19T09:41:53.795Z,16.73
2023-04-19T09:44:35.905Z,12.75
2023-04-19T09:45:45.493Z,15.15
2023-04-19T09:46:53.787Z,9.68
2023-04-19T09:48:08.426Z,7.70
2023-04-19T09:49:25.286Z,9.20
2023-04-19T09:51:03.297Z,7.53
2023-04-19T09:52:10.345Z,8.02
2023-04-19T09:53:13.625Z,8.65
2023-04-19T09:54:21.257Z,10.98
2023-04-19T09:55:27.503Z,7.80
2023-04-19T09:56:31.728Z,9.80
2023-04-19T09:57:35.357Z,11.63
2023-04-19T09:58:50.069Z,7.53
2023-04-19T09:59:56.094Z,12.02
2023-04-19T10:01:10.675Z,11.98
2023-04-19T10:02:17.893Z,12.90
2023-04-19T10:03:22.715Z,6.80
2023-04-19T10:04:41.778Z,14.00
2023-04-19T10:05:51.649Z,7.63
2023-04-19T10:07:19.330Z,6.40
2023-04-19T10:08:18.274Z,9.20
2023-04-19T10:09:24.695Z,8.10
2023-04-19T10:11:40.095Z,6.10
2023-04-19T10:12:59.213Z,8.75
2023-04-19T10:14:08.029Z,7.28
2023-04-19T10:15:12.291Z,12.50
2023-04-19T10:16:19.357Z,9.00
2023-04-19T10:17:24.536Z,8.52
2023-04-19T10:18:28.628Z,9.55
2023-04-19T10:19:32.113Z,10.18
2023-04-19T10:20:56.269Z,6.28
2023-04-19T10:22:00.171Z,8.25
2023-04-19T10:23:04.519Z,6.68
2023-04-19T10:24:09.029Z,5.43
2023-04-19T10:25:14.187Z,12.00
2023-04-19T10:26:17.653Z,7.50
2023-04-19T10:27:25.322Z,6.15
2023-04-19T10:28:32.221Z,10.38
2023-04-19T10:30:01.779Z,6.05
2023-04-19T10:31:06.521Z,10.07
2023-04-19T10:32:14.910Z,12.32
2023-04-19T10:33:28.968Z,9.30
2023-04-19T10:34:39.118Z,6.47
2023-04-19T10:35:43.429Z,11.60
2023-04-19T10:36:47.647Z,9.05
2023-04-19T10:38:08.467Z,5.60
2023-04-19T10:39:41.459Z,8.05
2023-04-19T10:40:57.000Z,5.13
2023-04-19T10:42:00.934Z,7.80
2023-04-19T10:43:17.627Z,9.93
2023-04-19T10:44:21.149Z,12.73
2023-04-19T10:45:35.226Z,6.75
2023-04-19T10:46:41.778Z,6.28
2023-04-19T10:47:48.984Z,4.38
2023-04-19T10:49:01.974Z,7.85
2023-04-19T10:50:07.506Z,4.82
2023-04-19T10:51:19.868Z,6.50
2023-04-19T10:52:30.282Z,5.15
2023-04-19T10:54:02.826Z,8.10
2023-04-19T10:55:06.824Z,7.20
2023-04-19T10:56:10.175Z,11.02
2023-04-19T10:57:14.275Z,6.72
2023-04-19T10:58:18.154Z,8.02
2023-04-19T10:59:25.382Z,7.35
2023-04-19T11:00:32.682Z,6.63
2023-04-19T11:01:46.315Z,8.60
2023-04-19T11:02:50.490Z,4.38
2023-04-19T11:03:54.456Z,6.63
2023-04-19T11:04:58.401Z,7.50
2023-04-19T11:06:20.209Z,7.63
2023-04-19T11:07:25.547Z,7.32
2023-04-19T11:08:29.401Z,7.07
2023-04-19T11:09:37.391Z,6.93
2023-04-19T11:10:41.084Z,10.95
2023-04-19T11:11:48.638Z,8.27
2023-04-19T11:12:52.489Z,7.70
2023-04-19T11:13:59.369Z,7.82
2023-04-19T11:15:03.889Z,8.00
2023-04-19T11:16:11.570Z,8.43
2023-04-19T11:17:28.605Z,8.05
2023-04-19T11:18:32.257Z,7.22
2023-04-19T11:19:35.931Z,8.93
2023-04-19T11:20:39.714Z,5.15
2023-04-19T11:21:43.372Z,7.45
2023-04-19T11:22:47.641Z,10.40
2023-04-19T11:24:09.168Z,9.35
2023-04-19T11:25:14.282Z,9.65
2023-04-19T11:26:18.807Z,8.13
2023-04-19T11:27:22.482Z,7.88
2023-04-19T11:28:26.323Z,9.38
2023-04-19T11:29:29.746Z,10.82
2023-04-19T11:30:33.385Z,8.77
2023-04-19T11:31:37.371Z,8.55
2023-04-19T11:32:48.397Z,8.23
2023-04-19T11:33:52.333Z,6.20
2023-04-19T11:34:56.790Z,6.38
2023-04-19T11:36:01.118Z,7.38
2023-04-19T11:37:04.871Z,6.90
2023-04-19T11:38:09.067Z,10.27
2023-04-19T11:39:12.476Z,8.90
2023-04-19T11:40:17.196Z,5.63
2023-04-19T11:41:20.995Z,11.63
2023-04-19T11:42:24.216Z,8.98
2023-04-19T11:43:36.379Z,7.78
2023-04-19T11:44:39.781Z,5.22
2023-04-19T11:45:43.271Z,5.28
2023-04-19T11:47:07.216Z,8.75
2023-04-19T11:48:17.341Z,7.55
2023-04-19T11:49:28.466Z,4.75
2023-04-19T11:50:44.667Z,6.25
2023-04-19T11:51:48.244Z,8.18
2023-04-19T11:52:51.901Z,8.38
2023-04-19T11:53:56.219Z,6.20
2023-04-19T11:55:00.163Z,9.27
2023-04-19T11:56:07.728Z,6.07
2023-04-19T11:57:11.192Z,10.10
2023-04-19T11:58:41.823Z,4.45
2023-04-19T12:00:15.590Z,8.88
2023-04-19T12:01:22.911Z,7.97
2023-04-19T12:02:26.588Z,6.43
2023-04-19T12:03:30.387Z,5.88
2023-04-19T12:04:35.245Z,4.15
2023-04-19T12:05:39.240Z,7.53
2023-04-19T12:06:43.192Z,9.85
2023-04-19T12:08:10.553Z,7.60
2023-04-19T12:09:14.297Z,7.07
2023-04-19T12:10:17.935Z,4.45
2023-04-19T12:11:27.344Z,5.18
2023-04-19T12:12:33.691Z,7.75
2023-04-19T12:13:37.173Z,4.97
2023-04-19T12:14:40.377Z,7.00
2023-04-19T12:15:47.762Z,8.25
2023-04-19T12:17:10.438Z,4.13
2023-04-19T12:18:13.763Z,4.55
2023-04-19T12:19:20.898Z,5.80
2023-04-19T12:20:38.135Z,6.85
2023-04-19T12:21:42.195Z,4.95
2023-04-19T12:22:45.864Z,6.10
2023-04-19T12:23:49.555Z,9.38
2023-04-19T12:24:54.093Z,11.25
2023-04-19T12:25:57.864Z,11.65
2023-04-19T12:27:02.206Z,8.10
2023-04-19T12:28:07.501Z,5.00
2023-04-19T12:29:11.566Z,6.63
2023-04-19T12:30:15.920Z,8.20
2023-04-19T12:31:21.375Z,5.22
2023-04-19T12:32:25.281Z,6.57
2023-04-19T12:33:29.907Z,11.20
2023-04-19T12:34:33.961Z,7.40
2023-04-19T12:35:39.098Z,8.38
2023-04-19T12:36:42.733Z,4.10
2023-04-19T12:37:46.122Z,9.73
2023-04-19T12:38:50.052Z,9.07
2023-04-19T12:39:55.982Z,8.48
2023-04-19T12:41:00.622Z,9.63
2023-04-19T12:42:04.437Z,5.18
2023-04-19T12:43:08.991Z,9.27
2023-04-19T12:44:12.629Z,9.77
2023-04-19T12:45:16.564Z,10.85
2023-04-19T12:46:21.273Z,8.50
2023-04-19T12:47:25.335Z,9.93
2023-04-19T12:48:29.666Z,8.60
2023-04-19T12:49:33.231Z,12.05
2023-04-19T12:50:36.906Z,6.88
2023-04-19T12:51:40.298Z,5.05
2023-04-19T12:52:45.358Z,7.00
2023-04-19T12:53:50.134Z,11.00
2023-04-19T12:54:53.547Z,9.38
2023-04-19T12:55:57.280Z,11.98
2023-04-19T12:57:02.902Z,7.38
2023-04-19T12:58:07.641Z,10.23
2023-04-19T12:59:12.448Z,9.00
2023-04-19T13:00:17.237Z,11.18
2023-04-19T13:01:21.202Z,8.90
2023-04-19T13:02:24.985Z,8.18
2023-04-19T13:03:33.611Z,9.60
2023-04-19T13:04:37.591Z,11.90
2023-04-19T13:05:41.959Z,9.55
2023-04-19T13:06:46.153Z,11.88
2023-04-19T13:07:49.956Z,6.88
2023-04-19T13:08:54.900Z,10.70
2023-04-19T13:09:58.673Z,7.95
2023-04-19T13:11:02.313Z,9.02
2023-04-19T13:12:08.879Z,9.63
2023-04-19T13:13:12.730Z,9.32
2023-04-19T13:14:16.583Z,10.98
2023-04-19T13:15:20.577Z,8.85
2023-04-19T13:16:24.975Z,8.13
2023-04-19T13:17:28.691Z,7.57
2023-04-19T13:18:32.489Z,8.65
2023-04-19T13:19:36.238Z,10.13
2023-04-19T13:20:40.165Z,9.60
2023-04-19T13:21:44.114Z,7.95
2023-04-19T13:22:47.632Z,11.18
2023-04-19T13:23:51.932Z,9.02
2023-04-19T13:24:55.755Z,7.35
2023-04-19T13:25:59.439Z,10.50
2023-04-19T13:27:02.802Z,6.55
2023-04-19T13:28:06.411Z,12.57
2023-04-19T13:29:10.129Z,9.80
2023-04-19T13:30:14.549Z,10.10
2023-04-19T13:31:18.023Z,15.18
2023-04-19T13:32:21.595Z,13.05
2023-04-19T13:33:25.099Z,9.35
2023-04-19T13:34:28.691Z,9.43
2023-04-19T13:35:32.920Z,10.68
2023-04-19T13:36:36.699Z,8.88
2023-04-19T13:37:40.898Z,9.88
2023-04-19T13:38:44.823Z,10.57
2023-04-19T13:39:48.606Z,13.90
2023-04-19T13:40:52.748Z,10.45
2023-04-19T13:41:56.156Z,9.77
2023-04-19T13:43:00.520Z,11.85
2023-04-19T13:44:04.314Z,8.02
2023-04-19T13:45:08.258Z,18.35
2023-04-19T13:46:11.772Z,10.55
2023-04-19T13:47:15.343Z,14.15
2023-04-19T13:48:19.311Z,10.07
2023-04-19T13:49:23.171Z,10.02
2023-04-19T13:50:26.786Z,11.95
2023-04-19T13:51:42.483Z,13.18
2023-04-19T13:52:53.408Z,10.80
2023-04-19T13:53:57.451Z,9.00
2023-04-19T13:55:00.730Z,6.30
2023-04-19T13:56:04.759Z,13.15
2023-04-19T13:57:08.309Z,14.15
2023-04-19T13:58:12.133Z,11.02
2023-04-19T13:59:16.659Z,14.73
2023-04-19T14:00:20.517Z,10.15
2023-04-19T14:01:24.344Z,12.40
2023-04-19T14:02:28.157Z,9.60
2023-04-19T14:03:32.892Z,10.23
2023-04-19T14:04:36.941Z,12.98
2023-04-19T14:05:41.473Z,11.88
2023-04-19T14:06:44.990Z,13.88
2023-04-19T14:07:49.043Z,13.80
2023-04-19T14:08:52.629Z,11.50
2023-04-19T14:09:56.206Z,11.45
2023-04-19T14:11:00.164Z,9.55
2023-04-19T14:12:05.414Z,12.00
2023-04-19T14:13:08.690Z,15.02
2023-04-19T14:14:12.004Z,16.38
2023-04-19T14:15:15.879Z,13.55
2023-04-19T14:16:19.576Z,7.28
2023-04-19T14:17:23.365Z,12.32
2023-04-19T14:18:27.468Z,13.95
2023-04-19T14:19:31.112Z,10.95
2023-04-19T14:20:35.572Z,16.80
2023-04-19T14:21:39.516Z,10.52
2023-04-19T14:22:43.473Z,10.05
2023-04-19T14:23:46.819Z,14.65
2023-04-19T14:24:50.499Z,14.23